createdAt,value
2022-08-03T00:00:32.716Z,18.44
2022-08-03T00:01:32.704Z,18.54
2022-08-03T00:02:32.714Z,18.72
2022-08-03T00:03:32.797Z,18.65
2022-08-03T00:04:34.167Z,18.79
2022-08-03T00:05:32.689Z,18.87
2022-08-03T00:06:36.798Z,18.83
2022-08-03T00:07:33.672Z,18.93
2022-08-03T00:08:32.674Z,18.87
2022-08-03T00:09:35.476Z,18.94
2022-08-03T00:10:32.627Z,19.09
2022-08-03T00:11:32.653Z,19.21
2022-08-03T00:12:32.634Z,19.20
2022-08-03T00:13:32.620Z,19.27
2022-08-03T00:14:32.719Z,19.32
2022-08-03T00:15:32.620Z,19.42
2022-08-03T00:16:32.631Z,19.42
2022-08-03T00:17:53.500Z,19.46
2022-08-03T00:18:34.650Z,19.39
2022-08-03T00:19:32.574Z,19.42
2022-08-03T00:20:32.592Z,19.55
2022-08-03T00:21:32.640Z,19.61
2022-08-03T00:22:32.608Z,19.58
2022-08-03T00:23:51.887Z,19.57
2022-08-03T00:24:34.534Z,19.60
2022-08-03T00:25:32.563Z,19.62
2022-08-03T00:26:32.511Z,19.61
2022-08-03T00:27:32.746Z,19.71
2022-08-03T00:28:32.533Z,19.70
2022-08-03T00:29:32.570Z,19.78
2022-08-03T00:30:32.588Z,19.71
2022-08-03T00:31:44.928Z,19.64
2022-08-03T00:32:33.546Z,19.58
2022-08-03T00:33:58.888Z,19.65
2022-08-03T00:34:57.582Z,19.55
2022-08-03T00:35:50.220Z,19.55
2022-08-03T00:36:33.498Z,19.45
2022-08-03T00:37:41.060Z,19.60
2022-08-03T00:38:33.467Z,19.61
2022-08-03T00:39:32.472Z,19.49
2022-08-03T00:40:32.476Z,19.55
2022-08-03T00:41:32.455Z,19.58
2022-08-03T00:42:32.490Z,19.50
2022-08-03T00:43:32.444Z,19.57
2022-08-03T00:44:32.431Z,19.45
2022-08-03T00:45:32.427Z,19.45
2022-08-03T00:46:32.449Z,19.43
2022-08-03T00:47:32.422Z,19.49
2022-08-03T00:48:33.441Z,19.45
2022-08-03T00:49:32.460Z,19.35
2022-08-03T00:50:32.395Z,19.35
2022-08-03T00:51:32.390Z,19.31
2022-08-03T00:52:32.461Z,19.23
2022-08-03T00:53:32.399Z,19.10
2022-08-03T00:54:32.379Z,19.09
2022-08-03T00:55:32.385Z,19.13
2022-08-03T00:56:32.337Z,19.16
2022-08-03T00:57:32.359Z,19.15
2022-08-03T00:58:32.343Z,19.09
2022-08-03T00:59:32.337Z,19.24
2022-08-03T01:00:32.373Z,19.24
2022-08-03T01:01:32.797Z,19.25
2022-08-03T01:02:32.325Z,19.17
2022-08-03T01:03:32.329Z,19.25
2022-08-03T01:04:32.395Z,19.23
2022-08-03T01:05:32.346Z,19.30
2022-08-03T01:06:32.325Z,19.28
2022-08-03T01:07:32.314Z,19.24
2022-08-03T01:08:32.298Z,19.31
2022-08-03T01:09:32.300Z,19.27
2022-08-03T01:10:32.296Z,19.28
2022-08-03T01:11:32.279Z,19.28
2022-08-03T01:12:32.253Z,19.34
2022-08-03T01:14:04.233Z,19.28
2022-08-03T01:14:33.234Z,19.28
2022-08-03T01:15:32.306Z,19.31
2022-08-03T01:16:36.826Z,19.27
2022-08-03T01:17:32.269Z,19.23
2022-08-03T01:18:32.260Z,19.28
2022-08-03T01:19:32.272Z,19.24
2022-08-03T01:20:32.297Z,19.21
2022-08-03T01:21:32.244Z,19.17
2022-08-03T01:22:32.203Z,19.17
2022-08-03T01:23:32.307Z,19.28
2022-08-03T01:24:32.199Z,19.24
2022-08-03T01:25:32.237Z,19.06
2022-08-03T01:26:32.162Z,18.89
2022-08-03T01:27:32.245Z,18.96
2022-08-03T01:28:32.241Z,18.83
2022-08-03T01:29:32.151Z,18.59
2022-08-03T01:30:32.156Z,18.29
2022-08-03T01:31:32.249Z,17.81
2022-08-03T01:33:00.249Z,17.53
2022-08-03T01:33:33.172Z,17.32
2022-08-03T01:34:32.328Z,17.10
2022-08-03T01:35:32.121Z,16.98
2022-08-03T01:36:32.160Z,16.81
2022-08-03T01:37:32.122Z,16.81
2022-08-03T01:38:32.115Z,16.88
2022-08-03T01:39:32.151Z,16.92
2022-08-03T01:40:32.076Z,17.18
2022-08-03T01:41:32.101Z,17.32
2022-08-03T01:42:32.084Z,17.45
2022-08-03T01:44:28.686Z,17.65
2022-08-03T01:44:33.094Z,17.77
2022-08-03T01:45:33.908Z,17.86
2022-08-03T01:46:32.039Z,17.94
2022-08-03T01:47:32.045Z,18.05
2022-08-03T01:48:32.026Z,18.01
2022-08-03T01:49:32.113Z,18.09
2022-08-03T01:50:32.062Z,18.05
2022-08-03T01:52:02.736Z,18.09
2022-08-03T01:52:33.025Z,18.21
2022-08-03T01:53:33.046Z,18.20
2022-08-03T01:54:32.028Z,18.29
2022-08-03T01:55:31.994Z,18.35
2022-08-03T01:56:32.001Z,18.57
2022-08-03T01:57:32.049Z,18.56
2022-08-03T01:58:31.985Z,18.54
2022-08-03T01:59:32.029Z,18.62
2022-08-03T02:00:31.974Z,18.54
2022-08-03T02:02:28.293Z,18.51
2022-08-03T02:02:34.621Z,18.49
2022-08-03T02:03:31.952Z,18.59
2022-08-03T02:04:31.969Z,18.50
2022-08-03T02:05:31.946Z,18.35
2022-08-03T02:06:59.942Z,18.34
2022-08-03T02:07:32.945Z,18.34
2022-08-03T02:08:31.924Z,18.42
2022-08-03T02:09:31.990Z,18.36
2022-08-03T02:10:35.556Z,18.21
2022-08-03T02:11:31.903Z,18.26
2022-08-03T02:12:31.914Z,18.21
2022-08-03T02:13:31.874Z,18.25
2022-08-03T02:14:31.917Z,18.26
2022-08-03T02:15:31.921Z,18.32
2022-08-03T02:16:31.908Z,18.26
2022-08-03T02:17:38.730Z,18.17
2022-08-03T02:18:32.874Z,18.16
2022-08-03T02:19:35.584Z,18.13
2022-08-03T02:20:32.883Z,18.10
2022-08-03T02:21:56.002Z,18.14
2022-08-03T02:22:32.954Z,18.04
2022-08-03T02:23:31.819Z,17.71
2022-08-03T02:24:31.790Z,17.45
2022-08-03T02:25:31.864Z,17.18
2022-08-03T02:26:31.848Z,17.09
2022-08-03T02:27:31.816Z,17.18
2022-08-03T02:28:31.815Z,17.03
2022-08-03T02:29:38.813Z,17.07
2022-08-03T02:30:32.793Z,17.02
2022-08-03T02:31:31.808Z,17.03
2022-08-03T02:32:31.780Z,16.99
2022-08-03T02:33:31.877Z,16.88
2022-08-03T02:34:31.899Z,16.67
2022-08-03T02:35:31.819Z,16.73
2022-08-03T02:36:31.812Z,16.69
2022-08-03T02:37:31.760Z,16.87
2022-08-03T02:38:31.773Z,16.92
2022-08-03T02:39:31.717Z,17.03
2022-08-03T02:40:31.767Z,17.05
2022-08-03T02:41:31.790Z,17.09
2022-08-03T02:42:31.706Z,17.25
2022-08-03T02:43:41.284Z,17.27
2022-08-03T02:44:32.725Z,17.22
2022-08-03T02:45:31.709Z,17.24
2022-08-03T02:46:31.737Z,17.30
2022-08-03T02:47:53.601Z,17.35
2022-08-03T02:48:32.718Z,17.36
2022-08-03T02:49:41.186Z,17.45
2022-08-03T02:50:32.668Z,17.51
2022-08-03T02:51:31.650Z,17.68
2022-08-03T02:52:31.623Z,17.65
2022-08-03T02:53:31.766Z,17.65
2022-08-03T02:54:31.658Z,17.74
2022-08-03T02:55:31.623Z,17.77
2022-08-03T02:56:31.596Z,17.83
2022-08-03T02:57:31.637Z,17.87
2022-08-03T02:58:31.652Z,17.95
2022-08-03T02:59:31.626Z,17.94
2022-08-03T03:00:31.592Z,17.86
2022-08-03T03:01:31.633Z,18.04
2022-08-03T03:02:31.598Z,17.89
2022-08-03T03:03:34.562Z,17.84
2022-08-03T03:04:33.213Z,17.73
2022-08-03T03:05:55.556Z,17.57
2022-08-03T03:06:32.558Z,17.25
2022-08-03T03:07:36.033Z,17.00
2022-08-03T03:08:32.540Z,16.95
2022-08-03T03:09:40.112Z,17.00
2022-08-03T03:10:32.593Z,17.09
2022-08-03T03:11:31.527Z,17.03
2022-08-03T03:12:31.502Z,17.14
2022-08-03T03:13:31.516Z,17.20
2022-08-03T03:14:33.150Z,17.24
2022-08-03T03:15:31.499Z,17.30
2022-08-03T03:16:31.514Z,17.46
2022-08-03T03:17:31.473Z,17.51
2022-08-03T03:18:31.489Z,17.57
2022-08-03T03:19:31.500Z,17.66
2022-08-03T03:20:31.457Z,17.66
2022-08-03T03:21:31.494Z,17.76
2022-08-03T03:22:31.479Z,17.71
2022-08-03T03:23:31.451Z,17.73
2022-08-03T03:24:31.460Z,17.77
2022-08-03T03:25:31.447Z,17.76
2022-08-03T03:26:31.472Z,17.71
2022-08-03T03:27:31.466Z,17.76
2022-08-03T03:28:31.440Z,17.68
2022-08-03T03:29:31.427Z,17.63
2022-08-03T03:30:32.404Z,17.68
2022-08-03T03:31:31.458Z,17.63
2022-08-03T03:32:31.479Z,17.70
2022-08-03T03:33:31.381Z,17.76
2022-08-03T03:34:31.391Z,17.76
2022-08-03T03:35:31.391Z,17.83
2022-08-03T03:36:32.404Z,17.80
2022-08-03T03:37:31.421Z,17.74
2022-08-03T03:38:31.382Z,17.71
2022-08-03T03:39:31.367Z,17.66
2022-08-03T03:40:31.353Z,17.49
2022-08-03T03:41:31.394Z,17.40
2022-08-03T03:42:31.359Z,17.27
2022-08-03T03:43:31.389Z,17.12
2022-08-03T03:44:31.387Z,16.95
2022-08-03T03:45:31.334Z,16.73
2022-08-03T03:46:31.355Z,16.67
2022-08-03T03:47:32.224Z,16.54
2022-08-03T03:48:32.214Z,16.37
2022-08-03T03:49:31.380Z,16.42
2022-08-03T03:50:31.289Z,16.37
2022-08-03T03:51:31.268Z,16.62
2022-08-03T03:52:31.292Z,16.63
2022-08-03T03:53:31.317Z,16.73
2022-08-03T03:54:31.263Z,16.81
2022-08-03T03:55:31.290Z,16.84
2022-08-03T03:56:31.233Z,16.85
2022-08-03T03:57:31.279Z,16.95
2022-08-03T03:58:31.295Z,16.90
2022-08-03T03:59:31.227Z,17.10
2022-08-03T04:00:31.380Z,17.00
2022-08-03T04:01:31.224Z,17.09
2022-08-03T04:02:31.209Z,17.14
2022-08-03T04:03:31.247Z,17.12
2022-08-03T04:04:31.219Z,17.15
2022-08-03T04:05:31.211Z,17.22
2022-08-03T04:06:31.223Z,17.18
2022-08-03T04:07:31.159Z,17.25
2022-08-03T04:08:31.253Z,17.30
2022-08-03T04:09:31.173Z,17.33
2022-08-03T04:10:31.262Z,17.27
2022-08-03T04:11:31.900Z,17.32
2022-08-03T04:12:31.145Z,17.28
2022-08-03T04:13:31.145Z,17.42
2022-08-03T04:14:31.165Z,17.39
2022-08-03T04:15:31.145Z,17.33
2022-08-03T04:16:31.206Z,17.33
2022-08-03T04:17:31.106Z,17.30
2022-08-03T04:18:31.110Z,17.35
2022-08-03T04:19:31.137Z,17.36
2022-08-03T04:20:31.080Z,17.32
2022-08-03T04:21:31.076Z,17.40
2022-08-03T04:22:31.099Z,17.38
2022-08-03T04:23:31.078Z,17.40
2022-08-03T04:24:31.080Z,17.53
2022-08-03T04:25:31.099Z,17.42
2022-08-03T04:26:31.109Z,17.49
2022-08-03T04:27:31.058Z,17.49
2022-08-03T04:28:32.025Z,17.46
2022-08-03T04:29:32.044Z,17.55
2022-08-03T04:30:31.026Z,17.62
2022-08-03T04:31:31.032Z,17.53
2022-08-03T04:32:31.116Z,17.65
2022-08-03T04:33:31.012Z,17.62
2022-08-03T04:34:31.014Z,17.58
2022-08-03T04:35:54.662Z,17.57
2022-08-03T04:36:32.003Z,17.47
2022-08-03T04:37:31.032Z,17.63
2022-08-03T04:38:31.050Z,17.62
2022-08-03T04:39:30.991Z,17.91
2022-08-03T04:40:30.965Z,18.21
2022-08-03T04:41:30.968Z,18.64
2022-08-03T04:42:30.969Z,19.01
2022-08-03T04:43:30.947Z,19.27
2022-08-03T04:44:30.973Z,19.58
2022-08-03T04:45:30.943Z,19.82
2022-08-03T04:46:30.940Z,20.30
2022-08-03T04:47:30.899Z,20.69
2022-08-03T04:48:30.924Z,20.97
2022-08-03T04:49:31.031Z,21.46
2022-08-03T04:50:30.914Z,21.83
2022-08-03T04:51:30.924Z,22.06
2022-08-03T04:52:30.921Z,22.27
2022-08-03T04:53:30.928Z,22.36
2022-08-03T04:54:30.964Z,22.56
2022-08-03T04:55:30.928Z,22.59
2022-08-03T04:56:30.857Z,23.04
2022-08-03T04:57:30.863Z,23.47
2022-08-03T04:58:30.837Z,23.64
2022-08-03T04:59:30.865Z,23.78
2022-08-03T05:00:30.855Z,23.84
2022-08-03T05:01:30.915Z,23.99
2022-08-03T05:02:30.878Z,23.99
2022-08-03T05:03:30.820Z,24.08
2022-08-03T05:04:30.815Z,24.23
2022-08-03T05:05:50.062Z,24.39
2022-08-03T05:06:31.787Z,24.53
2022-08-03T05:07:36.455Z,24.60
2022-08-03T05:08:31.823Z,24.53
2022-08-03T05:09:50.153Z,24.36
2022-08-03T05:10:31.848Z,24.31
2022-08-03T05:11:30.812Z,24.34
2022-08-03T05:12:33.747Z,24.33
2022-08-03T05:13:31.784Z,24.23
2022-08-03T05:14:30.710Z,24.31
2022-08-03T05:15:30.704Z,24.36
2022-08-03T05:16:30.699Z,24.31
2022-08-03T05:17:30.730Z,24.37
2022-08-03T05:18:30.766Z,24.16
2022-08-03T05:19:30.706Z,24.19
2022-08-03T05:20:30.747Z,24.21
2022-08-03T05:21:50.325Z,24.37
2022-08-03T05:22:31.697Z,24.39
2022-08-03T05:23:30.666Z,24.55
2022-08-03T05:24:30.677Z,24.66
2022-08-03T05:25:30.710Z,24.64
2022-08-03T05:26:30.737Z,24.63
2022-08-03T05:27:30.648Z,24.63
2022-08-03T05:28:30.638Z,24.67
2022-08-03T05:29:30.645Z,24.79
2022-08-03T05:30:33.828Z,24.68
2022-08-03T05:31:30.634Z,24.70
2022-08-03T05:32:30.726Z,24.86
2022-08-03T05:33:30.606Z,24.80
2022-08-03T05:34:30.592Z,24.77
2022-08-03T05:36:01.981Z,24.82
2022-08-03T05:36:31.566Z,24.70
2022-08-03T05:37:30.632Z,24.70
2022-08-03T05:38:34.580Z,24.71
2022-08-03T05:39:30.593Z,24.79
2022-08-03T05:40:30.552Z,24.84
2022-08-03T05:41:36.824Z,24.89
2022-08-03T05:42:31.593Z,24.87
2022-08-03T05:43:30.586Z,24.74
2022-08-03T05:44:30.659Z,24.79
2022-08-03T05:45:30.553Z,24.87
2022-08-03T05:46:30.553Z,24.77
2022-08-03T05:47:30.577Z,24.71
2022-08-03T05:48:30.638Z,24.86
2022-08-03T05:49:30.583Z,24.89
2022-08-03T05:50:30.499Z,24.89
2022-08-03T05:51:30.516Z,24.84
2022-08-03T05:52:30.675Z,24.89
2022-08-03T05:53:30.475Z,24.87
2022-08-03T05:54:56.306Z,24.97
2022-08-03T05:55:31.485Z,24.98
2022-08-03T05:56:30.466Z,24.97
2022-08-03T05:57:30.464Z,24.97
2022-08-03T05:58:30.469Z,24.87
2022-08-03T05:59:38.476Z,25.04
2022-08-03T06:00:32.415Z,24.93
2022-08-03T06:01:30.514Z,24.98
2022-08-03T06:02:30.430Z,25.02
2022-08-03T06:03:30.430Z,24.94
2022-08-03T06:04:30.425Z,24.92
2022-08-03T06:05:30.395Z,24.84
2022-08-03T06:06:32.329Z,24.89
2022-08-03T06:07:31.402Z,24.82
2022-08-03T06:08:30.479Z,24.70
2022-08-03T06:09:31.915Z,24.68
2022-08-03T06:10:35.738Z,24.55
2022-08-03T06:11:31.797Z,24.49
2022-08-03T06:12:30.472Z,24.52
2022-08-03T06:13:30.566Z,24.39
2022-08-03T06:14:30.359Z,24.45
2022-08-03T06:15:30.319Z,24.46
2022-08-03T06:16:30.298Z,24.55
2022-08-03T06:17:30.345Z,24.59
2022-08-03T06:18:31.289Z,24.71
2022-08-03T06:19:30.319Z,24.61
2022-08-03T06:20:30.277Z,24.30
2022-08-03T06:21:30.279Z,24.23
2022-08-03T06:22:30.263Z,24.16
2022-08-03T06:23:53.962Z,24.30
2022-08-03T06:24:31.280Z,24.26
2022-08-03T06:25:30.259Z,24.36
2022-08-03T06:26:30.230Z,24.39
2022-08-03T06:27:37.006Z,24.42
2022-08-03T06:28:52.357Z,24.02
2022-08-03T06:29:32.275Z,23.42
2022-08-03T06:30:31.225Z,23.38
2022-08-03T06:31:32.916Z,23.67
2022-08-03T06:32:30.196Z,23.81
2022-08-03T06:34:30.429Z,24.05
2022-08-03T06:34:35.599Z,24.16
2022-08-03T06:35:30.184Z,23.86
2022-08-03T06:36:30.177Z,23.45
2022-08-03T06:37:30.157Z,23.38
2022-08-03T06:38:30.192Z,23.54
2022-08-03T06:39:30.169Z,23.71
2022-08-03T06:40:30.208Z,23.86
2022-08-03T06:41:30.328Z,24.12
2022-08-03T06:42:31.216Z,24.33
2022-08-03T06:43:31.177Z,24.66
2022-08-03T06:44:30.107Z,24.87
2022-08-03T06:45:31.975Z,24.94
2022-08-03T06:46:30.180Z,25.24
2022-08-03T06:47:30.205Z,25.26
2022-08-03T06:48:30.119Z,25.36
2022-08-03T06:49:31.130Z,25.44
2022-08-03T06:50:30.250Z,25.53
2022-08-03T06:52:05.570Z,25.45
2022-08-03T06:52:38.140Z,25.54
2022-08-03T06:53:31.122Z,25.66
2022-08-03T06:54:32.850Z,25.57
2022-08-03T06:55:30.058Z,25.69
2022-08-03T06:56:30.083Z,25.81
2022-08-03T06:57:30.026Z,25.91
2022-08-03T06:58:30.023Z,26.06
2022-08-03T07:00:07.599Z,26.11
2022-08-03T07:00:31.027Z,26.03
2022-08-03T07:01:30.086Z,26.01
2022-08-03T07:02:29.996Z,26.04
2022-08-03T07:03:30.111Z,26.04
2022-08-03T07:04:30.008Z,26.00
2022-08-03T07:05:30.042Z,25.89
2022-08-03T07:06:29.985Z,25.91
2022-08-03T07:07:29.950Z,26.04
2022-08-03T07:08:33.622Z,25.96
2022-08-03T07:09:29.965Z,25.85
2022-08-03T07:10:29.976Z,25.61
2022-08-03T07:11:29.961Z,25.22
2022-08-03T07:12:29.952Z,25.14
2022-08-03T07:13:29.938Z,24.98
2022-08-03T07:14:29.899Z,24.66
2022-08-03T07:15:54.344Z,24.87
2022-08-03T07:16:30.889Z,25.22
2022-08-03T07:17:30.008Z,25.45
2022-08-03T07:18:30.887Z,25.48
2022-08-03T07:19:29.936Z,25.54
2022-08-03T07:20:32.530Z,25.51
2022-08-03T07:21:30.884Z,25.53
2022-08-03T07:22:30.025Z,25.72
2022-08-03T07:23:29.934Z,25.82
2022-08-03T07:24:29.901Z,25.90
2022-08-03T07:25:29.899Z,25.89
2022-08-03T07:26:29.867Z,25.96
2022-08-03T07:27:29.878Z,26.35
2022-08-03T07:28:29.927Z,26.57
2022-08-03T07:29:29.795Z,26.53
2022-08-03T07:30:29.813Z,26.56
2022-08-03T07:31:34.343Z,26.68
2022-08-03T07:32:29.828Z,26.68
2022-08-03T07:33:29.820Z,26.73
2022-08-03T07:34:29.769Z,26.78
2022-08-03T07:35:29.757Z,26.79
2022-08-03T07:36:29.790Z,26.83
2022-08-03T07:37:29.863Z,26.66
2022-08-03T07:38:29.873Z,26.44
2022-08-03T07:39:29.791Z,26.53
2022-08-03T07:40:31.550Z,26.44
2022-08-03T07:41:29.737Z,26.49
2022-08-03T07:42:29.789Z,26.60
2022-08-03T07:43:29.745Z,26.81
2022-08-03T07:44:29.801Z,26.91
2022-08-03T07:45:29.859Z,26.94
2022-08-03T07:46:29.716Z,26.94
2022-08-03T07:47:35.465Z,27.16
2022-08-03T07:48:30.799Z,27.20
2022-08-03T07:49:29.863Z,27.05
2022-08-03T07:50:29.673Z,27.03
2022-08-03T07:51:30.701Z,27.15
2022-08-03T07:52:29.698Z,27.08
2022-08-03T07:53:29.658Z,27.15
2022-08-03T07:54:29.789Z,27.28
2022-08-03T07:55:29.667Z,27.30
2022-08-03T07:56:29.639Z,27.30
2022-08-03T07:57:29.693Z,27.52
2022-08-03T07:58:29.715Z,27.69
2022-08-03T07:59:29.685Z,27.83
2022-08-03T08:00:30.706Z,27.81
2022-08-03T08:01:29.786Z,27.88
2022-08-03T08:02:29.650Z,27.96
2022-08-03T08:03:29.693Z,27.96
2022-08-03T08:04:30.594Z,27.88
2022-08-03T08:05:29.643Z,27.84
2022-08-03T08:06:29.614Z,27.91
2022-08-03T08:07:29.568Z,28.13
2022-08-03T08:08:29.605Z,28.18
2022-08-03T08:09:29.586Z,28.03
2022-08-03T08:10:29.554Z,28.21
2022-08-03T08:11:29.617Z,28.17
2022-08-03T08:12:29.565Z,28.25
2022-08-03T08:13:29.579Z,28.24
2022-08-03T08:14:29.564Z,27.90
2022-08-03T08:15:29.544Z,27.76
2022-08-03T08:16:29.584Z,27.86
2022-08-03T08:17:29.599Z,27.95
2022-08-03T08:18:29.563Z,27.93
2022-08-03T08:19:29.526Z,28.15
2022-08-03T08:20:31.337Z,28.36
2022-08-03T08:21:53.181Z,28.30
2022-08-03T08:22:31.554Z,28.54
2022-08-03T08:23:42.182Z,28.58
2022-08-03T08:24:30.493Z,28.55
2022-08-03T08:25:29.681Z,28.60
2022-08-03T08:26:29.518Z,28.35
2022-08-03T08:28:22.172Z,28.54
2022-08-03T08:28:33.654Z,28.72
2022-08-03T08:29:29.487Z,28.98
2022-08-03T08:30:29.448Z,29.03
2022-08-03T08:31:29.491Z,28.94
2022-08-03T08:32:29.423Z,28.92
2022-08-03T08:33:48.095Z,29.15
2022-08-03T08:34:31.446Z,29.41
2022-08-03T08:35:29.407Z,29.26
2022-08-03T08:36:29.515Z,29.37
2022-08-03T08:37:29.388Z,29.42
2022-08-03T08:38:29.439Z,29.47
2022-08-03T08:39:29.394Z,29.49
2022-08-03T08:40:29.389Z,29.64
2022-08-03T08:41:31.995Z,29.70
2022-08-03T08:42:29.370Z,29.67
2022-08-03T08:43:29.500Z,29.78
2022-08-03T08:44:29.378Z,29.55
2022-08-03T08:45:29.365Z,29.44
2022-08-03T08:46:29.439Z,29.49
2022-08-03T08:47:29.337Z,29.55
2022-08-03T08:48:30.353Z,29.48
2022-08-03T08:49:29.379Z,29.70
2022-08-03T08:50:29.440Z,29.92
2022-08-03T08:51:59.034Z,29.92
2022-08-03T08:52:32.130Z,30.08
2022-08-03T08:53:29.312Z,30.08
2022-08-03T08:54:29.435Z,30.19
2022-08-03T08:55:29.346Z,30.23
2022-08-03T08:56:29.390Z,30.44
2022-08-03T08:57:42.446Z,30.63
2022-08-03T08:58:31.375Z,30.57
2022-08-03T08:59:48.905Z,30.61
2022-08-03T09:00:30.335Z,30.70
2022-08-03T09:01:29.316Z,30.70
2022-08-03T09:02:29.282Z,30.68
2022-08-03T09:03:30.768Z,30.83
2022-08-03T09:04:29.265Z,30.79
2022-08-03T09:05:54.832Z,31.03
2022-08-03T09:06:31.276Z,31.04
2022-08-03T09:07:29.324Z,30.85
2022-08-03T09:08:29.210Z,30.88
2022-08-03T09:10:11.351Z,30.98
2022-08-03T09:10:30.195Z,30.96
2022-08-03T09:11:51.636Z,30.91
2022-08-03T09:12:42.013Z,31.00
2022-08-03T09:13:31.206Z,31.00
2022-08-03T09:14:36.540Z,31.16
2022-08-03T09:15:30.189Z,31.32
2022-08-03T09:16:29.168Z,31.04
2022-08-03T09:17:29.194Z,31.04
2022-08-03T09:18:32.555Z,30.70
2022-08-03T09:19:29.190Z,30.64
2022-08-03T09:20:29.118Z,30.56
2022-08-03T09:21:32.182Z,30.75
2022-08-03T09:22:30.147Z,30.91
2022-08-03T09:24:00.669Z,31.15
2022-08-03T09:24:41.210Z,31.16
2022-08-03T09:25:31.122Z,31.30
2022-08-03T09:26:29.112Z,31.53
2022-08-03T09:27:29.084Z,31.65
2022-08-03T09:28:53.955Z,31.69
2022-08-03T09:29:30.120Z,31.94
2022-08-03T09:30:34.191Z,32.06
2022-08-03T09:31:30.075Z,32.12
2022-08-03T09:32:29.015Z,32.27
2022-08-03T09:33:36.057Z,32.25
2022-08-03T09:34:30.063Z,32.24
2022-08-03T09:35:51.503Z,32.17
2022-08-03T09:36:31.037Z,32.22
2022-08-03T09:38:12.723Z,32.25
2022-08-03T09:38:30.018Z,32.25
2022-08-03T09:39:40.591Z,32.29
2022-08-03T09:40:30.043Z,32.19
2022-08-03T09:41:28.981Z,32.32
2022-08-03T09:42:28.979Z,32.40
2022-08-03T09:43:28.965Z,32.49
2022-08-03T09:44:29.004Z,32.47
2022-08-03T09:45:28.985Z,32.47
2022-08-03T09:46:28.932Z,32.43
2022-08-03T09:47:28.954Z,32.46
2022-08-03T09:48:28.938Z,32.54
2022-08-03T09:49:28.990Z,32.53
2022-08-03T09:50:28.937Z,32.58
2022-08-03T09:52:29.512Z,32.47
2022-08-03T09:52:38.179Z,32.40
2022-08-03T09:53:29.887Z,32.39
2022-08-03T09:54:28.909Z,32.41
2022-08-03T09:56:33.264Z,32.54
2022-08-03T09:56:34.728Z,32.43
2022-08-03T09:57:29.861Z,32.54
2022-08-03T09:58:28.843Z,32.71
2022-08-03T09:59:28.957Z,32.78
2022-08-03T10:00:28.890Z,32.91
2022-08-03T10:01:28.915Z,32.85
2022-08-03T10:02:28.820Z,33.00
2022-08-03T10:03:28.943Z,32.98
2022-08-03T10:04:28.829Z,32.99
2022-08-03T10:05:28.834Z,33.00
2022-08-03T10:06:29.316Z,33.06
2022-08-03T10:07:28.810Z,33.14
2022-08-03T10:08:28.804Z,33.15
2022-08-03T10:09:28.894Z,33.21
2022-08-03T10:10:31.591Z,33.11
2022-08-03T10:11:28.797Z,33.15
2022-08-03T10:12:28.789Z,33.15
2022-08-03T10:13:28.746Z,33.34
2022-08-03T10:14:28.752Z,33.33
2022-08-03T10:16:23.291Z,33.20
2022-08-03T10:16:29.752Z,33.15
2022-08-03T10:17:28.811Z,33.05
2022-08-03T10:18:28.761Z,33.09
2022-08-03T10:19:28.720Z,33.21
2022-08-03T10:20:28.738Z,33.20
2022-08-03T10:21:28.763Z,32.93
2022-08-03T10:22:28.766Z,33.00
2022-08-03T10:23:31.872Z,33.02
2022-08-03T10:24:28.750Z,33.05
2022-08-03T10:25:33.047Z,33.17
2022-08-03T10:26:28.693Z,33.21
2022-08-03T10:27:28.722Z,33.45
2022-08-03T10:28:28.663Z,33.40
2022-08-03T10:29:28.713Z,33.43
2022-08-03T10:30:29.019Z,33.28
2022-08-03T10:31:28.640Z,33.31
2022-08-03T10:32:28.649Z,33.26
2022-08-03T10:33:50.183Z,33.20
2022-08-03T10:34:29.650Z,33.14
2022-08-03T10:35:28.769Z,33.11
2022-08-03T10:36:28.595Z,32.96
2022-08-03T10:37:28.613Z,33.07
2022-08-03T10:38:28.595Z,32.90
2022-08-03T10:39:28.641Z,33.02
2022-08-03T10:40:54.549Z,33.15
2022-08-03T10:41:30.605Z,33.21
2022-08-03T10:42:28.648Z,33.12
2022-08-03T10:43:28.593Z,33.24
2022-08-03T10:44:28.674Z,33.09
2022-08-03T10:45:28.628Z,33.05
2022-08-03T10:46:28.576Z,33.06
2022-08-03T10:47:28.527Z,33.09
2022-08-03T10:48:28.566Z,33.07
2022-08-03T10:49:34.443Z,33.02
2022-08-03T10:50:29.553Z,33.12
2022-08-03T10:51:28.577Z,33.24
2022-08-03T10:52:32.798Z,33.40
2022-08-03T10:53:29.519Z,33.31
2022-08-03T10:54:28.495Z,33.15
2022-08-03T10:55:28.510Z,33.24
2022-08-03T10:56:48.021Z,33.40
2022-08-03T10:57:29.596Z,33.26
2022-08-03T10:58:30.825Z,33.29
2022-08-03T10:59:28.450Z,33.17
2022-08-03T11:00:28.520Z,33.22
2022-08-03T11:01:28.452Z,33.50
2022-08-03T11:02:29.511Z,33.45
2022-08-03T11:03:28.441Z,33.62
2022-08-03T11:04:29.942Z,33.66
2022-08-03T11:05:28.441Z,33.66
2022-08-03T11:06:28.423Z,33.59
2022-08-03T11:07:29.418Z,33.72
2022-08-03T11:08:28.448Z,33.50
2022-08-03T11:09:28.394Z,33.57
2022-08-03T11:10:28.375Z,33.68
2022-08-03T11:11:28.379Z,33.71
2022-08-03T11:12:31.137Z,33.65
2022-08-03T11:13:28.403Z,33.68
2022-08-03T11:14:28.382Z,33.65
2022-08-03T11:15:28.397Z,33.56
2022-08-03T11:16:28.373Z,33.55
2022-08-03T11:17:28.404Z,33.68
2022-08-03T11:18:28.378Z,33.72
2022-08-03T11:19:28.339Z,33.87
2022-08-03T11:20:28.341Z,33.84
2022-08-03T11:21:30.437Z,33.84
2022-08-03T11:22:29.322Z,33.96
2022-08-03T11:24:02.504Z,33.89
2022-08-03T11:24:29.335Z,33.89
2022-08-03T11:25:54.745Z,33.78
2022-08-03T11:26:29.267Z,33.82
2022-08-03T11:27:29.276Z,33.89
2022-08-03T11:28:28.486Z,33.89
2022-08-03T11:29:28.260Z,33.94
2022-08-03T11:30:28.273Z,33.87
2022-08-03T11:31:52.087Z,33.79
2022-08-03T11:32:30.250Z,33.78
2022-08-03T11:33:28.244Z,33.93
2022-08-03T11:34:28.230Z,33.92
2022-08-03T11:35:28.282Z,33.90
2022-08-03T11:36:32.550Z,33.77
2022-08-03T11:37:33.160Z,33.60
2022-08-03T11:38:30.512Z,33.59
2022-08-03T11:39:28.235Z,33.65
2022-08-03T11:40:28.225Z,33.72
2022-08-03T11:41:28.202Z,33.84
2022-08-03T11:42:28.233Z,33.93
2022-08-03T11:43:31.030Z,34.19
2022-08-03T11:44:29.190Z,34.24
2022-08-03T11:45:28.419Z,34.34
2022-08-03T11:46:30.076Z,34.33
2022-08-03T11:47:28.326Z,34.40
2022-08-03T11:48:28.516Z,34.43
2022-08-03T11:49:28.353Z,34.05
2022-08-03T11:50:28.182Z,34.06
2022-08-03T11:51:28.270Z,34.09
2022-08-03T11:52:28.987Z,34.12
2022-08-03T11:53:29.163Z,34.05
2022-08-03T11:54:28.101Z,34.08
2022-08-03T11:55:30.650Z,34.14
2022-08-03T11:56:29.103Z,34.01
2022-08-03T11:59:00.775Z,33.79
2022-08-03T11:59:16.665Z,33.87
2022-08-03T11:59:29.086Z,33.71
2022-08-03T12:00:28.095Z,33.65
2022-08-03T12:01:28.100Z,33.84
2022-08-03T12:02:31.364Z,33.90
2022-08-03T12:03:28.143Z,33.84
2022-08-03T12:04:28.069Z,34.00
2022-08-03T12:05:28.133Z,33.90
2022-08-03T12:06:28.098Z,33.90
2022-08-03T12:08:04.021Z,33.77
2022-08-03T12:08:29.039Z,33.60
2022-08-03T12:09:28.012Z,33.57
2022-08-03T12:10:28.124Z,33.62
2022-08-03T12:11:28.049Z,33.66
2022-08-03T12:12:28.055Z,33.74
2022-08-03T12:14:43.925Z,33.66
2022-08-03T12:14:50.296Z,33.74
2022-08-03T12:15:29.058Z,33.70
2022-08-03T12:16:27.987Z,33.68
2022-08-03T12:17:28.119Z,33.78
2022-08-03T12:18:27.994Z,33.90
2022-08-03T12:19:28.010Z,33.99
2022-08-03T12:20:34.516Z,34.08
2022-08-03T12:21:28.955Z,34.16
2022-08-03T12:22:28.003Z,34.26
2022-08-03T12:23:27.935Z,34.36
2022-08-03T12:24:28.060Z,34.28
2022-08-03T12:25:39.758Z,34.24
2022-08-03T12:26:28.929Z,34.12
2022-08-03T12:27:27.958Z,34.14
2022-08-03T12:28:36.025Z,34.14
2022-08-03T12:29:28.933Z,33.92
2022-08-03T12:30:27.913Z,33.93
2022-08-03T12:31:27.906Z,33.99
2022-08-03T12:32:27.903Z,34.08
2022-08-03T12:33:27.898Z,34.11
2022-08-03T12:34:30.860Z,34.26
2022-08-03T12:35:28.459Z,34.27
2022-08-03T12:36:27.935Z,34.27
2022-08-03T12:37:27.918Z,34.36
2022-08-03T12:38:27.873Z,34.38
2022-08-03T12:39:27.925Z,34.27
2022-08-03T12:40:28.461Z,34.30
2022-08-03T12:41:28.938Z,34.28
2022-08-03T12:42:27.862Z,34.30
2022-08-03T12:43:27.820Z,34.24
2022-08-03T12:44:28.841Z,34.30
2022-08-03T12:45:27.834Z,34.38
2022-08-03T12:46:27.795Z,34.45
2022-08-03T12:47:27.804Z,34.45
2022-08-03T12:48:27.995Z,34.30
2022-08-03T12:49:27.892Z,34.40
2022-08-03T12:50:27.819Z,34.00
2022-08-03T12:51:27.797Z,33.82
2022-08-03T12:52:27.792Z,33.79